Timişoara, România

10:01 AM EEST on martie 30, 2015 (GMT +0300)
Dumbravita | | Change Station
CLOSE
Current Station
Staţie meteo personală
Location: Timisoara, Timis
Elevation: 305 ft
Nearby Weather Stations

Elev 305 ft 45.80 °N, 21.24 °E | Updated 53 seconds ago

Cer acoperit
Cer acoperit
47.3 °F
Feels Like 47 °F
N
1.0
Vânt variabil Vânt from SSE
Gusts 8.0 mph

astăzi
High -- | Low -- °F
--% Chance of Precip.
Ieri
High -- | Low -- °F
Precip. -- inch
7:19 AM 8:00 PM
Lună în creştere, 77% visible
Presiunea 29.62 inch
Vizibilitatea 6.2 mile
Nori
Vânt rece 47 °F
Punctul de rouă 30 °F
Umiditatea 69%
Precipitaţii 0.00 inch
Adâncimea zăpezii Not available.
UV Not available.
Pollen Not available.
Calitatea aerului Not available.
Flu Activity Not available.
METAR LRTR 300630Z 11008KT 9999 -RA NSC 07/04 Q1003 NOSIG

More Conditions Fewer Conditions

Presiunea 29.62 inch
Vizibilitatea 6.2 mile
Nori
Vânt rece 47 °F
Punctul de rouă 30 °F
Umiditatea 69%
Precipitaţii 0.00 inch
Adâncimea zăpezii Not available.
UV Not available.
Pollen Not available.
Calitatea aerului Not available.
Flu Activity Not available.
METAR LRTR 300630Z 11008KT 9999 -RA NSC 07/04 Q1003 NOSIG

More Conditions Fewer Conditions

10-Day Weather Forecast

Almanac

Astronomie

Mar. 30, 2015 Răsărit Apus
Timpul Actual
Crepusculul Civil
Crepusculul nautic
Răsărit Astronomic
Luna
Durata zilei lumină
Lungimea zilei
Tomorrow will be .
, % of the Moon is Illuminated

Extremele de azi

Country Highs Country Lows

Community

WunderPhotos

Upload Photos

1,809,449 photos uploaded!

WunderBlogs® & News

Nearby

Calitatea aerului

  Calitatea aerului Index de calitate a aerului Poluat
Not available.

Adâncimea zapezii

Station Depth Elevation

Earthquake Activity

Oraş Distance Mag. Time & Date
Minimum magnitude displayed is 2.5.

Coastal Water Temperatures

Locul Temperatura

Stations

Nearby Weather Stations

Locaţia staţiei Temp Vânt rece Punctul de rouă Umiditatea Vânt Precip. Elev Actualizare Type